Time;durP1;ratioP1;P1;durP2;ratioP2;P2;SDS_P1;SDS_P2;PMS_P1;PMS_P2;Temp;Humidity;BMP_temperature;BMP_pressure;BME280_temperature;BME280_humidity;BME280_pressure;Samples;Min_cycle;Max_cycle;Signal;HPM_P1;HPM_P2
2024/01/28 00:01:38;;;;;;;2.28;2.08;;;18.30;68.90;;;;;;5026606;28;20057;-81
2024/01/28 00:04:04;;;;;;;2.58;2.38;;;18.30;68.20;;;;;;5029072;28;20049;-82
2024/01/28 00:06:30;;;;;;;2.30;2.03;;;18.30;68.20;;;;;;5006216;28;20033;-82
2024/01/28 00:08:55;;;;;;;2.95;2.65;;;18.30;68.20;;;;;;5024462;28;20540;-83
2024/01/28 00:11:21;;;;;;;2.40;2.30;;;18.30;68.20;;;;;;5027028;28;20399;-82
2024/01/28 00:13:46;;;;;;;2.50;2.30;;;18.30;68.20;;;;;;4995898;28;20084;-81
2024/01/28 00:16:18;;;;;;;2.20;2.10;;;18.30;68.20;;;;;;5028188;28;20087;-80
2024/01/28 00:18:44;;;;;;;2.50;2.00;;;18.20;68.10;;;;;;5011921;28;20537;-79
2024/01/28 00:21:10;;;;;;;2.22;2.13;;;18.20;69.00;;;;;;5025192;28;20021;-80
2024/01/28 00:23:35;;;;;;;2.40;2.20;;;18.20;68.10;;;;;;5009840;28;20547;-79
2024/01/28 00:26:02;;;;;;;2.35;2.15;;;18.20;68.10;;;;;;5009529;28;20109;-79
2024/01/28 00:28:28;;;;;;;2.40;2.20;;;18.20;68.20;;;;;;5027046;28;20017;-79
2024/01/28 00:30:54;;;;;;;2.88;2.53;;;18.20;68.10;;;;;;5028451;28;20030;-79
2024/01/28 00:33:19;;;;;;;2.40;2.25;;;18.20;68.10;;;;;;5008948;28;20026;-80
2024/01/28 00:35:45;;;;;;;2.28;2.10;;;18.10;68.10;;;;;;5025022;28;20594;-80
2024/01/28 00:38:10;;;;;;;2.22;1.90;;;18.20;68.20;;;;;;5008209;28;20029;-81
2024/01/28 00:40:36;;;;;;;1.88;1.77;;;18.20;68.20;;;;;;5025109;28;20046;-81
2024/01/28 00:43:02;;;;;;;1.67;1.58;;;18.20;68.10;;;;;;5028280;28;20025;-81
2024/01/28 00:45:28;;;;;;;2.10;2.00;;;18.20;68.10;;;;;;5011651;28;20026;-81
2024/01/28 00:47:53;;;;;;;1.95;1.85;;;18.10;68.00;;;;;;5024481;28;20459;-81
2024/01/28 00:50:22;;;;;;;1.92;1.83;;;18.10;68.10;;;;;;4995562;28;20553;-81
2024/01/28 00:52:48;;;;;;;2.20;2.00;;;18.10;68.00;;;;;;5011102;28;20129;-83
2024/01/28 00:55:13;;;;;;;2.00;1.90;;;18.10;68.10;;;;;;5028290;28;20071;-81
2024/01/28 00:57:39;;;;;;;1.85;1.75;;;18.10;67.90;;;;;;5025769;28;20553;-82
2024/01/28 01:00:06;;;;;;;1.30;1.25;;;18.10;68.00;;;;;;5025741;28;20021;-79
2024/01/28 01:02:31;;;;;;;1.95;1.85;;;18.10;68.00;;;;;;5010236;28;20076;-79
2024/01/28 01:04:57;;;;;;;1.80;1.70;;;18.10;68.00;;;;;;5010246;28;20439;-79
2024/01/28 01:07:22;;;;;;;2.05;1.95;;;18.00;68.10;;;;;;4993846;28;20018;-79
2024/01/28 01:09:49;;;;;;;2.00;1.90;;;18.00;68.00;;;;;;5023246;28;20021;-79
2024/01/28 01:12:15;;;;;;;1.83;1.73;;;18.00;68.00;;;;;;5007298;28;20030;-79
2024/01/28 01:14:40;;;;;;;1.90;1.80;;;18.00;68.00;;;;;;5008527;28;20552;-79
2024/01/28 01:17:06;;;;;;;2.35;2.05;;;18.00;67.90;;;;;;5026936;28;20029;-79
2024/01/28 01:19:32;;;;;;;2.80;2.22;;;18.00;67.90;;;;;;5007336;28;20037;-80
2024/01/28 01:21:57;;;;;;;1.77;1.67;;;18.00;68.00;;;;;;5027001;28;20037;-79
2024/01/28 01:24:23;;;;;;;1.70;1.60;;;18.00;67.90;;;;;;5009721;28;20056;-80
2024/01/28 01:26:50;;;;;;;1.50;1.40;;;18.00;67.80;;;;;;5008498;28;20026;-80
2024/01/28 01:29:16;;;;;;;1.58;1.48;;;18.00;67.90;;;;;;5023308;28;20025;-80
2024/01/28 01:31:41;;;;;;;1.55;1.45;;;18.00;67.90;;;;;;5024079;28;20026;-80
2024/01/28 01:34:07;;;;;;;1.90;1.73;;;17.90;67.80;;;;;;5011454;28;20034;-80
2024/01/28 01:36:32;;;;;;;1.45;1.40;;;17.90;67.80;;;;;;4993001;28;20657;-80
2024/01/28 01:38:58;;;;;;;1.75;1.50;;;17.90;67.80;;;;;;5010513;28;20364;-80
2024/01/28 01:41:25;;;;;;;1.75;1.65;;;18.00;67.80;;;;;;5026875;28;20418;-81
2024/01/28 01:43:51;;;;;;;1.65;1.55;;;17.90;67.70;;;;;;5023335;28;20720;-80
2024/01/28 01:46:16;;;;;;;1.92;1.83;;;17.90;67.70;;;;;;5027199;28;20025;-81
2024/01/28 01:48:42;;;;;;;1.88;1.77;;;17.90;67.70;;;;;;5024450;28;20029;-80
2024/01/28 01:51:09;;;;;;;1.67;1.58;;;17.90;67.70;;;;;;5024769;28;20029;-81
2024/01/28 01:53:35;;;;;;;1.88;1.77;;;17.80;67.70;;;;;;4990873;28;20363;-81
2024/01/28 01:56:01;;;;;;;1.75;1.65;;;17.80;67.70;;;;;;5007320;28;20040;-80
2024/01/28 01:58:27;;;;;;;1.50;1.40;;;17.80;67.60;;;;;;4993108;28;20513;-81
2024/01/28 02:00:53;;;;;;;1.70;1.60;;;17.80;67.70;;;;;;5009496;28;20076;-80
2024/01/28 02:03:19;;;;;;;1.80;1.70;;;17.80;67.70;;;;;;4995181;28;20045;-80
2024/01/28 02:05:44;;;;;;;1.70;1.60;;;17.80;67.70;;;;;;5008277;28;20022;-80
2024/01/28 02:08:10;;;;;;;1.70;1.60;;;17.80;67.70;;;;;;4992904;28;20137;-81
2024/01/28 02:10:35;;;;;;;1.58;1.48;;;17.80;67.60;;;;;;5007088;28;20030;-81
2024/01/28 02:13:01;;;;;;;1.50;1.40;;;17.70;67.60;;;;;;5024867;28;20021;-81
2024/01/28 02:15:26;;;;;;;1.30;1.20;;;17.70;67.50;;;;;;5022727;28;20551;-81
2024/01/28 02:17:52;;;;;;;1.63;1.52;;;17.80;67.60;;;;;;5024459;28;20499;-79
2024/01/28 02:20:18;;;;;;;1.65;1.55;;;17.70;67.60;;;;;;5006204;28;20026;-79
2024/01/28 02:22:43;;;;;;;1.27;1.25;;;17.70;67.60;;;;;;5024849;28;20025;-80
2024/01/28 02:25:09;;;;;;;1.40;1.30;;;17.70;67.60;;;;;;5009389;28;20029;-80
2024/01/28 02:27:35;;;;;;;1.73;1.38;;;17.70;67.60;;;;;;5022132;28;20030;-80
2024/01/28 02:30:01;;;;;;;1.40;1.30;;;17.70;67.50;;;;;;5023832;28;20116;-81
2024/01/28 02:32:27;;;;;;;1.38;1.27;;;17.70;67.60;;;;;;4991520;28;20515;-81
2024/01/28 02:34:52;;;;;;;1.40;1.30;;;17.60;67.60;;;;;;5022804;28;20079;-81
2024/01/28 02:37:18;;;;;;;1.38;1.27;;;17.70;67.60;;;;;;5025720;28;20377;-81
2024/01/28 02:39:44;;;;;;;1.65;1.55;;;17.60;67.50;;;;;;5024012;28;20025;-81
2024/01/28 02:42:10;;;;;;;1.55;1.45;;;17.60;67.30;;;;;;5019226;28;20034;-81
2024/01/28 02:44:35;;;;;;;1.10;1.10;;;17.60;67.50;;;;;;5007713;28;20395;-80
2024/01/28 02:47:01;;;;;;;1.50;1.40;;;17.60;67.40;;;;;;5026270;28;20175;-81
2024/01/28 02:49:27;;;;;;;1.50;1.40;;;17.60;67.40;;;;;;5006654;28;20064;-81
2024/01/28 02:51:53;;;;;;;1.50;1.40;;;17.60;68.00;;;;;;5022110;28;20041;-80
2024/01/28 02:54:18;;;;;;;1.42;1.30;;;17.60;67.30;;;;;;5024616;28;20029;-80
2024/01/28 02:56:44;;;;;;;1.17;1.17;;;17.50;67.30;;;;;;5023201;28;20414;-80
2024/01/28 02:59:13;;;;;;;1.10;1.10;;;17.60;67.10;;;;;;5021056;28;20479;-79
2024/01/28 03:01:49;;;;;;;1.17;1.17;;;17.60;66.20;;;;;;4992427;28;20486;-79
2024/01/28 03:04:14;;;;;;;1.00;1.00;;;17.50;66.80;;;;;;5026068;28;20087;-81
2024/01/28 03:06:40;;;;;;;1.50;1.40;;;17.50;67.10;;;;;;5024954;28;20487;-81
2024/01/28 03:09:07;;;;;;;1.40;1.30;;;17.50;66.00;;;;;;5024451;28;20036;-80
2024/01/28 03:11:32;;;;;;;1.58;1.48;;;17.50;66.00;;;;;;5022117;28;20395;-80
2024/01/28 03:13:58;;;;;;;1.73;1.20;;;17.50;66.60;;;;;;5006779;28;20037;-80
2024/01/28 03:16:24;;;;;;;1.08;1.00;;;17.50;66.50;;;;;;5024042;28;20029;-80
2024/01/28 03:18:49;;;;;;;1.42;1.33;;;17.50;66.50;;;;;;5025482;28;20037;-80
2024/01/28 03:21:15;;;;;;;1.10;1.10;;;17.50;66.60;;;;;;5023987;28;20092;-80
2024/01/28 03:23:41;;;;;;;1.10;1.10;;;17.50;66.60;;;;;;5020736;28;20029;-80
2024/01/28 03:26:09;;;;;;;1.00;0.98;;;17.50;66.20;;;;;;5023145;28;20022;-80
2024/01/28 03:28:35;;;;;;;1.20;1.15;;;17.50;66.40;;;;;;5025560;28;20083;-79
2024/01/28 03:31:00;;;;;;;1.20;1.20;;;17.50;66.30;;;;;;5026431;28;20543;-79
2024/01/28 03:33:26;;;;;;;1.20;1.10;;;17.40;66.00;;;;;;4992445;28;20017;-79
2024/01/28 03:35:51;;;;;;;1.02;1.02;;;17.50;65.90;;;;;;5005321;28;20038;-79
2024/01/28 03:38:17;;;;;;;1.20;1.10;;;17.40;66.10;;;;;;5007249;28;20022;-79
2024/01/28 03:40:43;;;;;;;1.50;1.40;;;17.40;66.60;;;;;;4990613;28;20034;-79
2024/01/28 03:43:09;;;;;;;0.95;0.90;;;17.40;66.00;;;;;;5008470;28;20075;-79
2024/01/28 03:45:34;;;;;;;1.55;1.20;;;17.40;66.10;;;;;;5024662;28;20091;-80
2024/01/28 03:48:00;;;;;;;1.05;1.05;;;17.40;66.80;;;;;;5006617;28;20022;-81
2024/01/28 03:50:25;;;;;;;1.00;1.00;;;17.30;65.90;;;;;;4991322;28;21365;-81
2024/01/28 03:52:51;;;;;;;1.20;1.20;;;17.40;66.80;;;;;;5022605;28;20499;-80
2024/01/28 03:55:17;;;;;;;1.33;1.23;;;17.30;66.00;;;;;;5025668;28;20021;-80
2024/01/28 03:57:43;;;;;;;1.20;1.10;;;17.30;66.00;;;;;;5006413;28;20483;-79
2024/01/28 04:00:11;;;;;;;1.20;1.10;;;17.30;66.10;;;;;;5022630;28;20531;-81
2024/01/28 04:02:37;;;;;;;0.90;0.90;;;17.30;66.30;;;;;;5020505;28;20121;-81
2024/01/28 04:05:03;;;;;;;0.95;0.95;;;17.30;65.90;;;;;;5003127;28;20018;-80
2024/01/28 04:07:29;;;;;;;1.33;1.23;;;17.30;66.40;;;;;;5021816;28;20026;-80
2024/01/28 04:09:55;;;;;;;0.82;0.82;;;17.30;66.50;;;;;;5024611;28;20024;-80
2024/01/28 04:12:20;;;;;;;1.10;1.08;;;17.30;65.90;;;;;;5021750;28;20034;-80
2024/01/28 04:14:46;;;;;;;0.88;0.88;;;17.30;65.80;;;;;;5021448;28;20033;-81
2024/01/28 04:17:11;;;;;;;1.20;0.98;;;17.30;65.90;;;;;;5023709;28;20249;-80
2024/01/28 04:19:37;;;;;;;1.00;1.00;;;17.30;66.70;;;;;;5023497;28;20089;-80
2024/01/28 04:22:02;;;;;;;0.98;0.98;;;17.20;66.10;;;;;;5024928;28;20495;-80
2024/01/28 04:24:28;;;;;;;1.08;1.08;;;17.20;66.70;;;;;;5006626;28;20882;-79
2024/01/28 04:26:53;;;;;;;1.10;1.00;;;17.20;66.60;;;;;;5005111;28;20475;-79
2024/01/28 04:29:19;;;;;;;1.20;1.13;;;17.20;66.00;;;;;;5019075;28;20390;-79
2024/01/28 04:31:45;;;;;;;1.08;1.08;;;17.20;65.90;;;;;;5024265;28;20399;-80
2024/01/28 04:34:10;;;;;;;0.80;0.80;;;17.20;66.20;;;;;;5023931;28;20025;-80
2024/01/28 04:36:36;;;;;;;0.90;0.90;;;17.20;65.90;;;;;;5023300;28;20104;-80
2024/01/28 04:39:02;;;;;;;0.90;0.90;;;17.10;65.70;;;;;;5008707;28;20010;-81
2024/01/28 04:41:28;;;;;;;1.10;1.10;;;17.20;65.80;;;;;;5008883;28;20045;-80
2024/01/28 04:43:54;;;;;;;1.20;1.10;;;17.20;65.80;;;;;;5008976;28;20048;-81
2024/01/28 04:46:19;;;;;;;1.00;1.00;;;17.20;65.90;;;;;;5027148;28;20380;-82
2024/01/28 04:48:45;;;;;;;0.90;0.90;;;17.10;65.70;;;;;;5010565;28;20034;-82
2024/01/28 04:51:10;;;;;;;0.77;0.77;;;17.10;66.10;;;;;;5024392;28;20521;-81
2024/01/28 04:53:36;;;;;;;0.80;0.80;;;17.10;65.60;;;;;;4990551;28;20076;-81
2024/01/28 04:56:02;;;;;;;1.90;1.20;;;17.10;65.90;;;;;;5010972;28;20479;-81
2024/01/28 04:58:28;;;;;;;0.70;0.70;;;17.10;65.90;;;;;;5027641;28;20483;-81
2024/01/28 05:00:54;;;;;;;1.00;1.00;;;17.10;65.60;;;;;;5027458;28;20033;-80
2024/01/28 05:03:20;;;;;;;1.20;1.10;;;17.10;65.60;;;;;;5038458;28;20064;-80
2024/01/28 05:05:46;;;;;;;0.75;0.75;;;17.10;65.50;;;;;;4994579;28;20456;-80
2024/01/28 05:08:12;;;;;;;0.80;0.80;;;17.10;65.90;;;;;;5025216;28;20523;-80
2024/01/28 05:10:38;;;;;;;1.20;1.20;;;17.10;66.00;;;;;;4993705;28;20423;-81
2024/01/28 05:13:04;;;;;;;0.90;0.90;;;17.10;65.50;;;;;;5027762;28;20021;-80
2024/01/28 05:15:29;;;;;;;0.90;0.90;;;17.10;66.00;;;;;;5008861;28;20030;-81
2024/01/28 05:17:55;;;;;;;1.00;1.00;;;17.10;65.90;;;;;;5023243;28;20026;-81
2024/01/28 05:20:21;;;;;;;0.93;0.93;;;17.00;66.30;;;;;;5026021;28;20029;-82
2024/01/28 05:22:47;;;;;;;0.80;0.80;;;17.00;65.80;;;;;;5026724;28;20054;-83
2024/01/28 05:25:13;;;;;;;1.10;1.10;;;17.10;65.80;;;;;;5010039;28;20068;-83
2024/01/28 05:27:38;;;;;;;0.90;0.90;;;17.00;65.70;;;;;;5009809;28;20029;-83
2024/01/28 05:30:07;;;;;;;1.02;1.02;;;17.00;66.10;;;;;;5026156;28;20025;-83
2024/01/28 05:32:33;;;;;;;1.10;1.00;;;17.00;65.90;;;;;;5024338;28;20491;-81
2024/01/28 05:35:02;;;;;;;0.80;0.80;;;17.00;65.80;;;;;;5025238;28;20567;-81
2024/01/28 05:37:28;;;;;;;0.80;0.80;;;17.00;65.70;;;;;;5008752;28;20108;-80
2024/01/28 05:39:53;;;;;;;0.70;0.70;;;17.00;65.90;;;;;;5026023;28;20120;-79
2024/01/28 05:42:19;;;;;;;0.70;0.70;;;17.00;65.90;;;;;;5009311;28;20041;-79
2024/01/28 05:44:44;;;;;;;0.80;0.80;;;17.00;65.80;;;;;;4993837;28;20029;-81
2024/01/28 05:47:10;;;;;;;1.27;1.17;;;17.00;65.80;;;;;;5021840;28;20092;-81
2024/01/28 05:49:36;;;;;;;1.08;1.08;;;16.90;65.30;;;;;;5022473;28;20504;-82
2024/01/28 05:52:02;;;;;;;0.90;0.90;;;17.00;65.60;;;;;;5024994;28;20063;-82
2024/01/28 05:54:30;;;;;;;0.90;0.90;;;17.00;66.20;;;;;;5025182;28;20116;-80
2024/01/28 05:56:55;;;;;;;1.65;1.02;;;16.90;65.70;;;;;;5025013;28;20630;-79
2024/01/28 05:59:21;;;;;;;0.68;0.68;;;16.90;65.40;;;;;;5025983;28;20037;-79
2024/01/28 06:01:46;;;;;;;1.17;1.08;;;16.90;65.50;;;;;;5024871;28;20553;-79
2024/01/28 06:04:12;;;;;;;0.70;0.70;;;16.90;66.30;;;;;;5028091;28;20399;-80
2024/01/28 06:06:37;;;;;;;0.75;0.75;;;16.90;66.00;;;;;;5023091;28;20029;-80
2024/01/28 06:09:04;;;;;;;0.80;0.80;;;16.90;65.70;;;;;;5024903;28;20120;-79
2024/01/28 06:11:30;;;;;;;1.30;1.20;;;16.90;67.20;;;;;;5006190;28;20026;-80
2024/01/28 06:13:56;;;;;;;0.90;0.90;;;16.90;66.00;;;;;;5024444;28;20071;-80
2024/01/28 06:16:21;;;;;;;1.10;1.00;;;16.90;65.90;;;;;;5024107;28;20083;-82
2024/01/28 06:18:47;;;;;;;2.80;1.25;;;17.00;65.90;;;;;;5025098;28;20491;-84
2024/01/28 06:21:13;;;;;;;0.70;0.70;;;16.90;65.90;;;;;;5009744;28;20507;-82
2024/01/28 06:23:38;;;;;;;1.23;1.13;;;16.90;65.80;;;;;;5022379;28;20080;-80
2024/01/28 06:26:04;;;;;;;1.95;1.85;;;16.90;65.90;;;;;;4993610;28;20407;-81
2024/01/28 06:28:31;;;;;;;35.85;17.63;;;16.90;66.30;;;;;;4991261;28;20036;-85
2024/01/28 06:30:56;;;;;;;10.07;6.30;;;17.00;66.60;;;;;;5023673;28;20034;-83
2024/01/28 06:33:22;;;;;;;65.97;36.15;;;16.90;66.50;;;;;;5023528;28;20029;-87
2024/01/28 06:35:48;;;;;;;78.00;40.72;;;17.00;65.90;;;;;;5009057;28;20044;-85
2024/01/28 06:38:13;;;;;;;99.57;44.80;;;17.00;66.50;;;;;;5026365;28;20025;-84
2024/01/28 06:40:39;;;;;;;108.78;50.67;;;17.00;66.50;;;;;;5023077;28;20457;-82
2024/01/28 06:43:04;;;;;;;109.82;51.13;;;17.10;66.60;;;;;;5027727;28;20048;-81
2024/01/28 06:45:30;;;;;;;112.75;53.63;;;17.10;66.80;;;;;;5024268;28;20082;-81
2024/01/28 06:47:56;;;;;;;103.93;50.17;;;17.10;66.90;;;;;;5024947;28;20029;-79
2024/01/28 06:50:21;;;;;;;102.30;47.63;;;17.10;66.80;;;;;;5023611;28;20073;-81
2024/01/28 06:52:48;;;;;;;100.25;46.97;;;17.20;66.60;;;;;;5023392;28;20431;-81
2024/01/28 06:55:13;;;;;;;93.75;45.45;;;17.20;66.70;;;;;;5025603;28;20018;-82
2024/01/28 06:57:39;;;;;;;97.03;42.50;;;17.10;66.70;;;;;;5023623;28;21345;-80
2024/01/28 07:00:05;;;;;;;85.57;41.47;;;17.20;66.80;;;;;;5023764;28;20040;-83
2024/01/28 07:02:31;;;;;;;82.57;38.58;;;17.20;66.80;;;;;;5024100;28;20534;-82
2024/01/28 07:04:57;;;;;;;80.85;37.88;;;17.20;66.90;;;;;;5023940;28;20057;-82
2024/01/28 07:07:23;;;;;;;75.18;36.58;;;17.20;67.00;;;;;;5037790;28;20029;-80
2024/01/28 07:09:48;;;;;;;79.05;37.05;;;17.20;67.20;;;;;;5022929;28;20028;-81
2024/01/28 07:12:14;;;;;;;74.95;35.22;;;17.20;67.10;;;;;;4992581;28;20509;-81
2024/01/28 07:14:41;;;;;;;70.00;34.35;;;17.20;67.20;;;;;;5020437;28;20507;-81
2024/01/28 07:17:07;;;;;;;71.22;33.80;;;17.30;67.10;;;;;;5022821;28;20503;-81
2024/01/28 07:19:33;;;;;;;67.30;32.97;;;17.30;67.10;;;;;;5005620;28;20040;-79
2024/01/28 07:21:58;;;;;;;62.35;32.13;;;17.40;66.80;;;;;;5039962;28;20033;-79
2024/01/28 07:24:24;;;;;;;65.93;33.55;;;17.40;66.70;;;;;;5022142;28;20507;-80
2024/01/28 07:26:49;;;;;;;59.60;30.42;;;17.40;66.80;;;;;;5006143;28;20024;-80
2024/01/28 07:29:15;;;;;;;54.90;28.33;;;17.30;66.80;;;;;;5006020;28;20022;-80
2024/01/28 07:31:40;;;;;;;60.15;29.60;;;17.30;66.90;;;;;;4989903;28;21336;-80
2024/01/28 07:34:06;;;;;;;57.25;27.45;;;17.30;67.10;;;;;;5025478;28;20033;-80
2024/01/28 07:36:32;;;;;;;75.68;38.83;;;17.30;67.10;;;;;;5023623;28;20487;-78
2024/01/28 07:38:57;;;;;;;71.65;38.17;;;17.40;66.80;;;;;;5023815;28;20080;-79
2024/01/28 07:41:23;;;;;;;72.38;38.58;;;17.50;66.70;;;;;;5023389;28;20081;-79
2024/01/28 07:43:50;;;;;;;76.13;40.55;;;17.40;66.70;;;;;;5023709;28;20025;-79
2024/01/28 07:46:16;;;;;;;81.97;41.90;;;17.40;66.80;;;;;;5023087;28;20025;-79
2024/01/28 07:48:42;;;;;;;75.50;38.90;;;17.40;66.80;;;;;;5038798;28;20022;-79
2024/01/28 07:51:08;;;;;;;75.18;39.67;;;17.40;66.70;;;;;;5021070;28;20025;-79
2024/01/28 07:53:34;;;;;;;74.38;39.35;;;17.50;66.80;;;;;;5024111;28;20476;-78
2024/01/28 07:56:00;;;;;;;70.25;38.30;;;17.40;66.60;;;;;;5006011;28;20026;-79
2024/01/28 07:58:26;;;;;;;66.20;36.97;;;17.50;66.70;;;;;;5022466;28;20033;-80
2024/01/28 08:00:51;;;;;;;67.07;37.35;;;17.50;66.50;;;;;;5020464;28;20410;-80
2024/01/28 08:03:17;;;;;;;65.97;36.60;;;17.50;66.50;;;;;;5019806;28;20029;-79
2024/01/28 08:05:42;;;;;;;65.68;36.55;;;17.60;66.40;;;;;;5004177;28;20033;-79
2024/01/28 08:08:08;;;;;;;61.55;34.38;;;17.60;66.40;;;;;;5022625;28;20030;-77
2024/01/28 08:10:33;;;;;;;64.82;34.67;;;17.60;66.40;;;;;;5023383;28;20042;-78
2024/01/28 08:12:59;;;;;;;62.85;33.40;;;17.60;66.20;;;;;;5022329;28;20025;-78
2024/01/28 08:15:24;;;;;;;60.63;32.65;;;17.70;66.20;;;;;;5023519;28;20022;-78
2024/01/28 08:17:50;;;;;;;56.63;31.13;;;17.80;66.10;;;;;;5021411;28;20100;-78
2024/01/28 08:20:16;;;;;;;57.53;31.38;;;17.80;66.20;;;;;;5007663;28;20555;-79
2024/01/28 08:22:42;;;;;;;56.40;31.05;;;17.90;66.20;;;;;;5025161;28;20038;-79
2024/01/28 08:25:08;;;;;;;49.95;27.35;;;17.90;66.30;;;;;;5011277;28;20955;-80
2024/01/28 08:27:33;;;;;;;51.13;28.70;;;17.90;66.10;;;;;;5024818;28;20056;-80
2024/01/28 08:29:59;;;;;;;50.50;28.83;;;17.90;66.00;;;;;;5027326;28;20424;-79
2024/01/28 08:32:25;;;;;;;52.53;29.65;;;17.90;66.00;;;;;;5023225;28;20076;-79
2024/01/28 08:34:51;;;;;;;52.28;26.98;;;18.00;66.20;;;;;;5024283;28;20030;-81
2024/01/28 08:37:17;;;;;;;44.65;26.02;;;18.10;66.00;;;;;;5012576;28;20085;-80
2024/01/28 08:39:43;;;;;;;42.60;25.23;;;18.20;65.90;;;;;;5008402;28;20048;-81
2024/01/28 08:42:08;;;;;;;42.72;24.33;;;18.30;66.00;;;;;;5008647;28;20021;-79
2024/01/28 08:44:34;;;;;;;40.55;23.45;;;18.40;66.00;;;;;;5021148;28;20029;-82
2024/01/28 08:46:59;;;;;;;41.53;22.85;;;18.50;65.90;;;;;;5010297;28;20459;-81
2024/01/28 08:49:25;;;;;;;39.60;22.50;;;18.60;66.20;;;;;;5011557;28;20018;-86
2024/01/28 08:51:50;;;;;;;37.90;20.85;;;18.60;66.10;;;;;;5008285;28;20091;-87
2024/01/28 08:54:16;;;;;;;35.50;20.90;;;18.70;66.10;;;;;;5026105;28;20032;-83
2024/01/28 08:56:42;;;;;;;36.53;21.52;;;18.80;66.20;;;;;;5024351;28;20061;-82
2024/01/28 08:59:07;;;;;;;37.13;19.92;;;18.90;65.90;;;;;;5010979;28;20033;-82
2024/01/28 09:01:33;;;;;;;32.03;17.98;;;18.80;65.90;;;;;;4991566;28;20037;-79
2024/01/28 09:03:59;;;;;;;27.55;16.77;;;18.80;66.00;;;;;;5011800;28;20033;-80
2024/01/28 09:06:25;;;;;;;31.33;17.10;;;18.80;66.00;;;;;;5007140;28;20025;-79
2024/01/28 09:08:50;;;;;;;30.15;17.45;;;18.90;66.30;;;;;;4654888;28;9999977;-78
2024/01/28 09:11:17;;;;;;;29.60;15.93;;;18.70;66.40;;;;;;5016154;28;20028;-80
2024/01/28 09:13:42;;;;;;;25.77;14.90;;;18.70;65.90;;;;;;5005802;28;20036;-80
2024/01/28 09:16:08;;;;;;;22.67;13.95;;;18.70;65.60;;;;;;5024814;28;20025;-79
2024/01/28 09:18:33;;;;;;;26.55;14.40;;;18.90;65.80;;;;;;4991431;28;20057;-79
2024/01/28 09:20:59;;;;;;;25.25;14.07;;;18.90;65.80;;;;;;5005286;28;20479;-80
2024/01/28 09:23:25;;;;;;;22.73;13.70;;;19.10;65.90;;;;;;5006599;28;20023;-79
2024/01/28 09:25:50;;;;;;;23.90;14.88;;;19.10;65.70;;;;;;5003424;28;20030;-79
2024/01/28 09:28:16;;;;;;;20.85;13.25;;;19.20;65.40;;;;;;5005315;28;20636;-79
2024/01/28 09:30:42;;;;;;;21.30;13.55;;;19.30;65.40;;;;;;5020576;28;20079;-79
2024/01/28 09:33:10;;;;;;;21.30;13.57;;;19.40;65.10;;;;;;4989937;28;20099;-79
2024/01/28 09:35:39;;;;;;;19.55;12.50;;;19.50;64.80;;;;;;5020715;28;20039;-79
2024/01/28 09:38:07;;;;;;;20.95;13.25;;;19.60;64.70;;;;;;5019778;28;20039;-79
2024/01/28 09:40:33;;;;;;;18.80;11.93;;;19.60;64.60;;;;;;5005230;28;20044;-79
2024/01/28 09:43:09;;;;;;;16.90;11.20;;;19.70;64.30;;;;;;4675721;28;10000185;-79
2024/01/28 09:45:35;;;;;;;16.80;11.18;;;19.70;64.30;;;;;;5008845;28;20029;-76
2024/01/28 09:48:01;;;;;;;20.45;11.25;;;19.70;64.20;;;;;;5009094;28;20037;-77
2024/01/28 09:50:27;;;;;;;16.38;11.20;;;19.70;65.00;;;;;;5022373;28;20108;-77
2024/01/28 09:52:53;;;;;;;15.75;10.93;;;19.80;64.10;;;;;;5008709;28;20105;-77
2024/01/28 09:55:18;;;;;;;14.43;11.05;;;19.70;65.10;;;;;;4993634;28;20052;-77
2024/01/28 09:57:44;;;;;;;14.88;10.50;;;19.90;64.90;;;;;;5025718;28;20053;-78
2024/01/28 10:00:10;;;;;;;13.63;10.55;;;19.90;65.00;;;;;;5010710;28;20033;-76
2024/01/28 10:02:35;;;;;;;14.05;10.10;;;19.90;65.00;;;;;;5004443;28;20457;-76
2024/01/28 10:05:02;;;;;;;15.57;10.27;;;19.90;65.10;;;;;;5019285;28;20563;-76
2024/01/28 10:07:27;;;;;;;18.25;9.65;;;19.90;65.30;;;;;;5025323;28;20084;-77
2024/01/28 10:09:53;;;;;;;14.18;9.55;;;19.90;65.90;;;;;;5025751;28;20487;-76
2024/01/28 10:12:18;;;;;;;15.23;9.38;;;19.90;65.90;;;;;;4992706;28;20021;-76
2024/01/28 10:14:50;;;;;;;14.50;9.45;;;20.00;66.20;;;;;;4655422;28;9999889;-77
2024/01/28 10:17:16;;;;;;;12.35;8.02;;;19.90;66.50;;;;;;5005663;28;20029;-77
2024/01/28 10:19:42;;;;;;;15.05;8.57;;;19.80;66.50;;;;;;5005007;28;20044;-77
2024/01/28 10:22:07;;;;;;;12.73;8.30;;;19.80;66.60;;;;;;4991103;28;20040;-77
2024/01/28 10:24:33;;;;;;;10.77;7.93;;;19.80;66.70;;;;;;4988046;28;20455;-76
2024/01/28 10:26:58;;;;;;;12.75;8.00;;;19.80;66.90;;;;;;4988014;28;20025;-76
2024/01/28 10:29:25;;;;;;;11.98;8.10;;;19.80;67.00;;;;;;5019105;28;20159;-77
2024/01/28 10:31:51;;;;;;;14.10;7.00;;;19.80;67.20;;;;;;5017445;28;20117;-76
2024/01/28 10:34:17;;;;;;;10.85;7.38;;;19.80;67.30;;;;;;5005153;28;20108;-77
2024/01/28 10:36:44;;;;;;;12.32;7.20;;;19.70;68.20;;;;;;5021141;28;20057;-77
2024/01/28 10:39:10;;;;;;;9.40;7.38;;;19.70;67.40;;;;;;5001062;28;20116;-76
2024/01/28 10:41:35;;;;;;;14.05;6.70;;;19.70;67.40;;;;;;5001446;28;20079;-77
2024/01/28 10:44:10;;;;;;;9.10;7.28;;;19.70;67.60;;;;;;5019153;28;20052;-77
2024/01/28 10:46:40;;;;;;;9.20;6.75;;;19.70;68.30;;;;;;5021139;28;20057;-76
2024/01/28 10:49:09;;;;;;;8.57;6.70;;;19.70;67.50;;;;;;5001969;28;20121;-77
2024/01/28 10:51:41;;;;;;;9.43;6.45;;;19.60;67.40;;;;;;5019881;28;20108;-77
2024/01/28 10:54:07;;;;;;;8.13;6.15;;;19.60;67.50;;;;;;5002877;28;20666;-77
2024/01/28 10:56:36;;;;;;;9.00;6.55;;;19.60;67.50;;;;;;5018096;28;20541;-77
2024/01/28 10:59:02;;;;;;;8.57;6.18;;;19.60;67.60;;;;;;4986383;28;20037;-77
2024/01/28 11:01:28;;;;;;;10.95;6.40;;;19.50;67.50;;;;;;5003288;28;20033;-77
2024/01/28 11:03:54;;;;;;;8.85;5.90;;;19.50;67.50;;;;;;4990735;28;20081;-77
2024/01/28 11:06:19;;;;;;;11.68;6.82;;;19.50;67.50;;;;;;5002149;28;20032;-77
2024/01/28 11:08:45;;;;;;;10.63;6.38;;;19.60;67.60;;;;;;5004633;28;20404;-78
2024/01/28 11:11:12;;;;;;;9.00;5.93;;;19.50;67.20;;;;;;4989158;28;20122;-77
2024/01/28 11:13:38;;;;;;;5.95;5.35;;;19.50;67.60;;;;;;5019283;28;20226;-77
2024/01/28 11:16:06;;;;;;;6.70;5.43;;;19.50;67.50;;;;;;5021265;28;20911;-77
2024/01/28 11:18:32;;;;;;;8.05;5.40;;;19.50;67.70;;;;;;5020572;28;20025;-77
2024/01/28 11:21:11;;;;;;;6.68;5.20;;;19.50;68.00;;;;;;5002103;28;20575;-77
2024/01/28 11:23:46;;;;;;;7.90;5.45;;;19.50;68.10;;;;;;4988486;28;20167;-77
2024/01/28 11:26:16;;;;;;;13.05;5.55;;;19.40;68.30;;;;;;5018327;28;20021;-77
2024/01/28 11:29:00;;;;;;;6.22;5.13;;;19.50;68.30;;;;;;5019202;28;20507;-77
2024/01/28 11:31:36;;;;;;;7.03;5.30;;;19.50;68.50;;;;;;5004625;28;20129;-77
2024/01/28 11:34:22;;;;;;;5.57;5.00;;;19.50;68.30;;;;;;5022032;28;20099;-76
2024/01/28 11:36:48;;;;;;;5.80;4.72;;;19.50;68.40;;;;;;5017877;28;20032;-77
2024/01/28 11:39:15;;;;;;;6.75;5.32;;;19.40;68.60;;;;;;5002854;28;20038;-77
2024/01/28 11:41:44;;;;;;;7.22;5.47;;;19.40;68.60;;;;;;5016877;28;20049;-77
2024/01/28 11:44:10;;;;;;;5.18;4.45;;;19.30;68.50;;;;;;5019750;28;20018;-77
2024/01/28 11:46:36;;;;;;;6.90;4.45;;;19.20;67.30;;;;;;5026954;28;21029;-77
2024/01/28 11:49:02;;;;;;;5.97;4.85;;;19.10;67.80;;;;;;5010233;28;20116;-77
2024/01/28 11:51:31;;;;;;;5.50;4.18;;;19.20;67.40;;;;;;5023337;28;20423;-77
2024/01/28 11:54:00;;;;;;;4.50;3.97;;;19.20;67.90;;;;;;5022864;28;20098;-77
2024/01/28 11:56:35;;;;;;;3.80;3.50;;;19.10;67.50;;;;;;5025071;28;20071;-79
2024/01/28 11:59:02;;;;;;;4.10;3.70;;;19.10;67.20;;;;;;5021979;28;20499;-79
2024/01/28 12:01:27;;;;;;;4.07;3.53;;;19.10;66.50;;;;;;5008477;28;20567;-79
2024/01/28 12:03:54;;;;;;;3.05;2.85;;;19.10;66.90;;;;;;5007296;28;20026;-78
2024/01/28 12:06:21;;;;;;;3.13;2.90;;;19.00;65.20;;;;;;5008649;28;20123;-78
2024/01/28 12:08:47;;;;;;;3.50;3.05;;;19.10;66.20;;;;;;5005524;28;20056;-79
2024/01/28 12:11:13;;;;;;;3.13;2.92;;;19.00;65.60;;;;;;5025130;28;20072;-78
2024/01/28 12:13:40;;;;;;;3.25;2.95;;;19.00;66.10;;;;;;5026358;28;20131;-76
2024/01/28 12:16:05;;;;;;;3.28;3.03;;;19.10;65.70;;;;;;5013042;28;20082;-77
2024/01/28 12:18:32;;;;;;;4.78;3.03;;;19.30;66.30;;;;;;5009977;28;20025;-76
2024/01/28 12:20:58;;;;;;;4.32;3.08;;;19.30;69.80;;;;;;5022428;28;20029;-76
2024/01/28 12:23:23;;;;;;;3.20;2.80;;;19.30;69.20;;;;;;5026361;28;20018;-77
2024/01/28 12:25:49;;;;;;;4.32;3.25;;;19.40;69.50;;;;;;5007727;28;20014;-77
2024/01/28 12:28:15;;;;;;;4.43;3.88;;;19.30;69.70;;;;;;5015419;28;20061;-77
2024/01/28 12:30:40;;;;;;;4.45;4.13;;;19.40;69.60;;;;;;5011874;28;20020;-77
2024/01/28 12:33:06;;;;;;;6.03;4.03;;;19.50;69.40;;;;;;5011631;28;20053;-76
2024/01/28 12:35:31;;;;;;;6.78;5.10;;;19.40;68.90;;;;;;5007052;28;20163;-77